sensor_id;sensor_type;location;lat;lon;timestamp;pressure;altitude;pressure_sealevel;temperature;humidity
63287;BME280;49410;55.708;37.522;2023-02-13T00:01:34;99696.06;;;-6.78;nan
63287;BME280;49410;55.708;37.522;2023-02-13T00:03:59;99682.81;;;-6.80;nan
63287;BME280;49410;55.708;37.522;2023-02-13T00:06:25;99681.88;;;-6.79;nan
63287;BME280;49410;55.708;37.522;2023-02-13T00:08:51;99677.47;;;-6.80;nan
63287;BME280;49410;55.708;37.522;2023-02-13T00:11:17;99672.78;;;-6.73;nan
63287;BME280;49410;55.708;37.522;2023-02-13T00:13:42;99670.75;;;-6.66;nan
63287;BME280;49410;55.708;37.522;2023-02-13T00:16:08;99630.34;;;-6.76;nan
63287;BME280;49410;55.708;37.522;2023-02-13T00:18:36;99654.41;;;-6.57;nan
63287;BME280;49410;55.708;37.522;2023-02-13T00:21:12;99656.59;;;-6.45;nan
63287;BME280;49410;55.708;37.522;2023-02-13T00:23:38;99645.75;;;-6.40;nan
63287;BME280;49410;55.708;37.522;2023-02-13T00:26:09;99642.81;;;-6.34;nan
63287;BME280;49410;55.708;37.522;2023-02-13T00:28:35;99628.56;;;-6.33;nan
63287;BME280;49410;55.708;37.522;2023-02-13T00:31:12;99639.84;;;-6.26;nan
63287;BME280;49410;55.708;37.522;2023-02-13T00:33:38;99629.72;;;-6.18;nan
63287;BME280;49410;55.708;37.522;2023-02-13T00:36:10;99620.56;;;-6.11;nan
63287;BME280;49410;55.708;37.522;2023-02-13T00:38:37;99584.78;;;-6.26;nan
63287;BME280;49410;55.708;37.522;2023-02-13T00:41:03;99618.34;;;-6.01;nan
63287;BME280;49410;55.708;37.522;2023-02-13T00:43:29;99624.97;;;-5.90;nan
63287;BME280;49410;55.708;37.522;2023-02-13T00:45:54;99604.88;;;-5.98;nan
63287;BME280;49410;55.708;37.522;2023-02-13T00:48:20;99602.59;;;-5.86;nan
63287;BME280;49410;55.708;37.522;2023-02-13T00:50:46;99591.41;;;-5.95;nan
63287;BME280;49410;55.708;37.522;2023-02-13T00:53:12;99592.16;;;-5.91;nan
63287;BME280;49410;55.708;37.522;2023-02-13T00:55:38;99608.59;;;-5.81;nan
63287;BME280;49410;55.708;37.522;2023-02-13T00:58:03;99594.53;;;-5.85;nan
63287;BME280;49410;55.708;37.522;2023-02-13T01:00:29;99595.38;;;-5.84;nan
63287;BME280;49410;55.708;37.522;2023-02-13T01:02:54;99603.84;;;-5.74;nan
63287;BME280;49410;55.708;37.522;2023-02-13T01:05:20;99594.34;;;-5.80;nan
63287;BME280;49410;55.708;37.522;2023-02-13T01:07:45;99602.03;;;-5.74;nan
63287;BME280;49410;55.708;37.522;2023-02-13T01:10:11;99578.25;;;-5.79;nan
63287;BME280;49410;55.708;37.522;2023-02-13T01:12:36;99586.22;;;-5.77;nan
63287;BME280;49410;55.708;37.522;2023-02-13T01:15:03;99578.00;;;-5.72;nan
63287;BME280;49410;55.708;37.522;2023-02-13T01:17:29;99590.19;;;-5.67;nan
63287;BME280;49410;55.708;37.522;2023-02-13T01:19:54;99596.25;;;-5.63;nan
63287;BME280;49410;55.708;37.522;2023-02-13T01:22:20;99576.91;;;-5.68;nan
63287;BME280;49410;55.708;37.522;2023-02-13T01:24:45;99579.25;;;-5.61;nan
63287;BME280;49410;55.708;37.522;2023-02-13T01:27:10;99573.91;;;-5.61;nan
63287;BME280;49410;55.708;37.522;2023-02-13T01:29:36;99560.44;;;-5.57;nan
63287;BME280;49410;55.708;37.522;2023-02-13T01:32:01;99563.69;;;-5.51;nan
63287;BME280;49410;55.708;37.522;2023-02-13T01:34:30;99560.75;;;-5.44;nan
63287;BME280;49410;55.708;37.522;2023-02-13T01:36:56;99557.13;;;-5.43;nan
63287;BME280;49410;55.708;37.522;2023-02-13T01:39:21;99536.16;;;-5.51;nan
63287;BME280;49410;55.708;37.522;2023-02-13T01:41:47;99539.19;;;-5.40;nan
63287;BME280;49410;55.708;37.522;2023-02-13T01:47:21;99516.66;;;-5.52;nan
63287;BME280;49410;55.708;37.522;2023-02-13T01:49:49;99527.69;;;-5.40;nan
63287;BME280;49410;55.708;37.522;2023-02-13T01:52:19;99511.97;;;-5.47;nan
63287;BME280;49410;55.708;37.522;2023-02-13T01:54:45;99510.94;;;-5.44;nan
63287;BME280;49410;55.708;37.522;2023-02-13T01:57:18;99516.56;;;-5.31;nan
63287;BME280;49410;55.708;37.522;2023-02-13T01:59:54;99515.56;;;-5.28;nan
63287;BME280;49410;55.708;37.522;2023-02-13T02:02:22;99492.94;;;-5.39;nan
63287;BME280;49410;55.708;37.522;2023-02-13T02:04:48;99506.72;;;-5.29;nan
63287;BME280;49410;55.708;37.522;2023-02-13T02:07:19;99470.31;;;-5.49;nan
63287;BME280;49410;55.708;37.522;2023-02-13T02:09:45;99484.09;;;-5.39;nan
63287;BME280;49410;55.708;37.522;2023-02-13T02:14:51;99485.16;;;-5.43;nan
63287;BME280;49410;55.708;37.522;2023-02-13T02:17:17;99497.19;;;-5.35;nan
63287;BME280;49410;55.708;37.522;2023-02-13T02:42:27;99460.81;;;-5.36;nan
63287;BME280;49410;55.708;37.522;2023-02-13T02:45:16;99426.19;;;-5.55;nan
63287;BME280;49410;55.708;37.522;2023-02-13T02:47:55;99452.09;;;-5.39;nan
63287;BME280;49410;55.708;37.522;2023-02-13T02:51:11;99435.38;;;-5.43;nan
63287;BME280;49410;55.708;37.522;2023-02-13T02:56:26;99434.38;;;-5.40;nan
63287;BME280;49410;55.708;37.522;2023-02-13T02:59:10;99415.16;;;-5.47;nan
63287;BME280;49410;55.708;37.522;2023-02-13T03:01:55;99402.34;;;-5.58;nan
63287;BME280;49410;55.708;37.522;2023-02-13T03:05:01;99423.06;;;-5.46;nan
63287;BME280;49410;55.708;37.522;2023-02-13T03:08:03;99417.66;;;-5.44;nan
63287;BME280;49410;55.708;37.522;2023-02-13T03:10:32;99414.94;;;-5.42;nan
63287;BME280;49410;55.708;37.522;2023-02-13T03:13:35;99403.16;;;-5.38;nan
63287;BME280;49410;55.708;37.522;2023-02-13T03:16:03;99401.13;;;-5.33;nan
63287;BME280;49410;55.708;37.522;2023-02-13T03:18:52;99417.00;;;-5.30;nan
63287;BME280;49410;55.708;37.522;2023-02-13T03:21:49;99411.56;;;-5.28;nan
63287;BME280;49410;55.708;37.522;2023-02-13T03:29:45;99376.22;;;-5.32;nan
63287;BME280;49410;55.708;37.522;2023-02-13T03:38:02;99357.69;;;-5.18;nan
63287;BME280;49410;55.708;37.522;2023-02-13T03:40:36;99360.66;;;-5.06;nan
63287;BME280;49410;55.708;37.522;2023-02-13T03:43:28;99345.53;;;-5.06;nan
63287;BME280;49410;55.708;37.522;2023-02-13T03:45:57;99329.59;;;-5.07;nan
63287;BME280;49410;55.708;37.522;2023-02-13T03:48:29;99345.31;;;-5.01;nan
63287;BME280;49410;55.708;37.522;2023-02-13T03:51:22;99330.41;;;-5.05;nan
63287;BME280;49410;55.708;37.522;2023-02-13T03:53:53;99340.75;;;-4.99;nan
63287;BME280;49410;55.708;37.522;2023-02-13T03:56:20;99330.34;;;-5.04;nan
63287;BME280;49410;55.708;37.522;2023-02-13T03:59:05;99348.44;;;-4.93;nan
63287;BME280;49410;55.708;37.522;2023-02-13T04:02:00;99347.50;;;-4.92;nan
63287;BME280;49410;55.708;37.522;2023-02-13T04:04:45;99338.84;;;-4.97;nan
63287;BME280;49410;55.708;37.522;2023-02-13T04:07:16;99332.34;;;-4.91;nan
63287;BME280;49410;55.708;37.522;2023-02-13T04:10:02;99334.59;;;-4.84;nan
63287;BME280;49410;55.708;37.522;2023-02-13T04:13:02;99343.16;;;-4.77;nan
63287;BME280;49410;55.708;37.522;2023-02-13T04:15:32;99321.91;;;-4.78;nan
63287;BME280;49410;55.708;37.522;2023-02-13T04:18:06;99324.56;;;-4.62;nan
63287;BME280;49410;55.708;37.522;2023-02-13T04:20:33;99321.06;;;-4.63;nan
63287;BME280;49410;55.708;37.522;2023-02-13T04:23:03;99318.00;;;-4.55;nan
63287;BME280;49410;55.708;37.522;2023-02-13T04:25:29;99291.09;;;-4.68;nan
63287;BME280;49410;55.708;37.522;2023-02-13T04:27:54;99296.44;;;-4.52;nan
63287;BME280;49410;55.708;37.522;2023-02-13T04:30:20;99280.78;;;-4.58;nan
63287;BME280;49410;55.708;37.522;2023-02-13T04:32:45;99287.22;;;-4.46;nan
63287;BME280;49410;55.708;37.522;2023-02-13T04:35:10;99283.88;;;-4.50;nan
63287;BME280;49410;55.708;37.522;2023-02-13T04:37:38;99289.91;;;-4.46;nan
63287;BME280;49410;55.708;37.522;2023-02-13T04:40:03;99295.00;;;-4.42;nan
63287;BME280;49410;55.708;37.522;2023-02-13T04:42:29;99269.75;;;-4.52;nan
63287;BME280;49410;55.708;37.522;2023-02-13T04:44:54;99269.44;;;-4.46;nan
63287;BME280;49410;55.708;37.522;2023-02-13T04:47:19;99271.06;;;-4.43;nan
63287;BME280;49410;55.708;37.522;2023-02-13T04:49:45;99261.16;;;-4.41;nan
63287;BME280;49410;55.708;37.522;2023-02-13T04:52:10;99245.47;;;-4.47;nan
63287;BME280;49410;55.708;37.522;2023-02-13T04:54:35;99267.44;;;-4.42;nan
63287;BME280;49410;55.708;37.522;2023-02-13T04:57:01;99260.38;;;-4.43;nan
63287;BME280;49410;55.708;37.522;2023-02-13T04:59:26;99258.59;;;-4.43;nan
63287;BME280;49410;55.708;37.522;2023-02-13T05:01:52;99240.84;;;-4.44;nan
63287;BME280;49410;55.708;37.522;2023-02-13T05:04:18;99240.22;;;-4.33;nan
63287;BME280;49410;55.708;37.522;2023-02-13T05:06:43;99230.84;;;-4.24;nan
63287;BME280;49410;55.708;37.522;2023-02-13T05:09:09;99238.75;;;-4.23;nan
63287;BME280;49410;55.708;37.522;2023-02-13T05:11:35;99240.13;;;-4.15;nan
63287;BME280;49410;55.708;37.522;2023-02-13T05:14:00;99212.69;;;-4.33;nan
63287;BME280;49410;55.708;37.522;2023-02-13T05:16:25;99222.56;;;-4.19;nan
63287;BME280;49410;55.708;37.522;2023-02-13T05:18:51;99201.63;;;-4.27;nan
63287;BME280;49410;55.708;37.522;2023-02-13T05:21:20;99225.25;;;-4.19;nan
63287;BME280;49410;55.708;37.522;2023-02-13T05:24:17;99216.44;;;-4.22;nan
63287;BME280;49410;55.708;37.522;2023-02-13T05:26:43;99231.09;;;-4.13;nan
63287;BME280;49410;55.708;37.522;2023-02-13T05:29:09;99218.94;;;-4.18;nan
63287;BME280;49410;55.708;37.522;2023-02-13T05:31:54;99209.22;;;-4.19;nan
63287;BME280;49410;55.708;37.522;2023-02-13T05:34:20;99213.06;;;-4.09;nan
63287;BME280;49410;55.708;37.522;2023-02-13T05:36:47;99208.56;;;-4.09;nan
63287;BME280;49410;55.708;37.522;2023-02-13T05:39:12;99206.19;;;-4.13;nan
63287;BME280;49410;55.708;37.522;2023-02-13T05:41:38;99199.22;;;-4.16;nan
63287;BME280;49410;55.708;37.522;2023-02-13T05:44:03;99207.53;;;-4.06;nan
63287;BME280;49410;55.708;37.522;2023-02-13T05:46:29;99200.50;;;-4.07;nan
63287;BME280;49410;55.708;37.522;2023-02-13T05:48:54;99213.22;;;-3.96;nan
63287;BME280;49410;55.708;37.522;2023-02-13T05:51:19;99190.06;;;-4.12;nan
63287;BME280;49410;55.708;37.522;2023-02-13T05:53:45;99219.69;;;-4.00;nan
63287;BME280;49410;55.708;37.522;2023-02-13T05:56:10;99204.00;;;-4.07;nan
63287;BME280;49410;55.708;37.522;2023-02-13T05:58:36;99201.84;;;-4.00;nan
63287;BME280;49410;55.708;37.522;2023-02-13T06:01:01;99221.91;;;-3.93;nan
63287;BME280;49410;55.708;37.522;2023-02-13T06:03:28;99193.84;;;-4.00;nan
63287;BME280;49410;55.708;37.522;2023-02-13T06:05:54;99222.59;;;-3.89;nan
63287;BME280;49410;55.708;37.522;2023-02-13T06:08:21;99214.97;;;-3.81;nan
63287;BME280;49410;55.708;37.522;2023-02-13T06:10:47;99208.88;;;-3.83;nan
63287;BME280;49410;55.708;37.522;2023-02-13T06:13:13;99200.75;;;-3.81;nan
63287;BME280;49410;55.708;37.522;2023-02-13T06:15:39;99186.72;;;-3.85;nan
63287;BME280;49410;55.708;37.522;2023-02-13T06:18:05;99196.88;;;-3.61;nan
63287;BME280;49410;55.708;37.522;2023-02-13T06:20:30;99204.50;;;-3.69;nan
63287;BME280;49410;55.708;37.522;2023-02-13T06:22:56;99215.06;;;-3.52;nan
63287;BME280;49410;55.708;37.522;2023-02-13T06:25:21;99199.50;;;-3.60;nan
63287;BME280;49410;55.708;37.522;2023-02-13T06:27:47;99210.41;;;-3.48;nan
63287;BME280;49410;55.708;37.522;2023-02-13T06:30:13;99207.44;;;-3.44;nan
63287;BME280;49410;55.708;37.522;2023-02-13T06:32:38;99210.69;;;-3.38;nan
63287;BME280;49410;55.708;37.522;2023-02-13T06:35:04;99204.03;;;-3.31;nan
63287;BME280;49410;55.708;37.522;2023-02-13T06:37:30;99187.09;;;-3.32;nan
63287;BME280;49410;55.708;37.522;2023-02-13T06:39:55;99195.44;;;-3.22;nan
63287;BME280;49410;55.708;37.522;2023-02-13T06:42:21;99188.06;;;-3.33;nan
63287;BME280;49410;55.708;37.522;2023-02-13T06:44:46;99176.50;;;-3.19;nan
63287;BME280;49410;55.708;37.522;2023-02-13T06:47:12;99157.50;;;-3.29;nan
63287;BME280;49410;55.708;37.522;2023-02-13T06:49:37;99172.81;;;-3.16;nan
63287;BME280;49410;55.708;37.522;2023-02-13T06:52:03;99157.88;;;-3.20;nan
63287;BME280;49410;55.708;37.522;2023-02-13T06:54:28;99182.06;;;-3.07;nan
63287;BME280;49410;55.708;37.522;2023-02-13T06:56:54;99161.88;;;-3.13;nan
63287;BME280;49410;55.708;37.522;2023-02-13T06:59:19;99170.50;;;-3.08;nan
63287;BME280;49410;55.708;37.522;2023-02-13T07:01:44;99150.53;;;-3.17;nan
63287;BME280;49410;55.708;37.522;2023-02-13T07:04:10;99149.75;;;-3.04;nan
63287;BME280;49410;55.708;37.522;2023-02-13T07:06:35;99154.16;;;-3.18;nan
63287;BME280;49410;55.708;37.522;2023-02-13T07:09:02;99140.00;;;-3.05;nan
63287;BME280;49410;55.708;37.522;2023-02-13T07:11:27;99146.50;;;-3.09;nan
63287;BME280;49410;55.708;37.522;2023-02-13T07:13:53;99153.56;;;-3.08;nan
63287;BME280;49410;55.708;37.522;2023-02-13T07:16:18;99156.66;;;-3.00;nan
63287;BME280;49410;55.708;37.522;2023-02-13T07:18:43;99140.09;;;-2.92;nan
63287;BME280;49410;55.708;37.522;2023-02-13T07:21:09;99125.94;;;-2.94;nan
63287;BME280;49410;55.708;37.522;2023-02-13T07:23:34;99145.84;;;-2.99;nan
63287;BME280;49410;55.708;37.522;2023-02-13T07:26:01;99116.41;;;-2.99;nan
63287;BME280;49410;55.708;37.522;2023-02-13T07:28:28;99103.28;;;-2.89;nan
63287;BME280;49410;55.708;37.522;2023-02-13T07:30:54;99104.50;;;-2.80;nan
63287;BME280;49410;55.708;37.522;2023-02-13T07:33:20;99108.00;;;-2.65;nan
63287;BME280;49410;55.708;37.522;2023-02-13T07:35:45;99120.69;;;-2.54;nan
63287;BME280;49410;55.708;37.522;2023-02-13T07:38:11;99119.41;;;-2.48;nan
63287;BME280;49410;55.708;37.522;2023-02-13T07:40:36;99091.97;;;-2.52;nan
63287;BME280;49410;55.708;37.522;2023-02-13T07:43:02;99112.06;;;-2.45;nan
63287;BME280;49410;55.708;37.522;2023-02-13T07:45:27;99093.75;;;-2.38;nan
63287;BME280;49410;55.708;37.522;2023-02-13T07:47:57;99087.19;;;-2.47;nan
63287;BME280;49410;55.708;37.522;2023-02-13T07:50:22;99107.44;;;-2.43;nan
63287;BME280;49410;55.708;37.522;2023-02-13T07:52:55;99097.94;;;-2.34;nan
63287;BME280;49410;55.708;37.522;2023-02-13T07:55:21;99097.84;;;-2.32;nan
63287;BME280;49410;55.708;37.522;2023-02-13T07:57:47;99106.25;;;-2.52;nan
63287;BME280;49410;55.708;37.522;2023-02-13T08:00:13;99101.09;;;-2.55;nan
63287;BME280;49410;55.708;37.522;2023-02-13T08:02:39;99114.13;;;-2.36;nan
63287;BME280;49410;55.708;37.522;2023-02-13T08:05:05;99106.28;;;-2.39;nan
63287;BME280;49410;55.708;37.522;2023-02-13T08:07:31;99078.94;;;-2.44;nan
63287;BME280;49410;55.708;37.522;2023-02-13T08:09:56;99105.94;;;-2.47;nan
63287;BME280;49410;55.708;37.522;2023-02-13T08:12:40;99101.09;;;-2.27;nan
63287;BME280;49410;55.708;37.522;2023-02-13T08:15:08;99078.47;;;-2.23;nan
63287;BME280;49410;55.708;37.522;2023-02-13T08:17:35;99090.59;;;-2.17;nan
63287;BME280;49410;55.708;37.522;2023-02-13T08:20:01;99079.03;;;-2.05;nan
63287;BME280;49410;55.708;37.522;2023-02-13T08:22:26;99080.44;;;-1.87;nan
63287;BME280;49410;55.708;37.522;2023-02-13T08:24:51;99058.16;;;-1.87;nan
63287;BME280;49410;55.708;37.522;2023-02-13T08:27:17;99064.28;;;-1.72;nan
63287;BME280;49410;55.708;37.522;2023-02-13T08:29:42;99053.13;;;-1.79;nan
63287;BME280;49410;55.708;37.522;2023-02-13T08:32:08;99047.97;;;-1.82;nan
63287;BME280;49410;55.708;37.522;2023-02-13T08:34:34;99040.88;;;-1.83;nan
63287;BME280;49410;55.708;37.522;2023-02-13T08:37:00;99037.91;;;-1.78;nan
63287;BME280;49410;55.708;37.522;2023-02-13T08:39:26;99034.56;;;-1.82;nan
63287;BME280;49410;55.708;37.522;2023-02-13T08:41:51;99032.63;;;-1.80;nan
63287;BME280;49410;55.708;37.522;2023-02-13T08:44:17;99033.91;;;-1.73;nan
63287;BME280;49410;55.708;37.522;2023-02-13T08:46:42;99035.13;;;-1.77;nan
63287;BME280;49410;55.708;37.522;2023-02-13T08:49:08;99043.16;;;-1.77;nan
63287;BME280;49410;55.708;37.522;2023-02-13T08:51:33;99034.66;;;-1.70;nan
63287;BME280;49410;55.708;37.522;2023-02-13T08:53:59;99022.88;;;-1.81;nan
63287;BME280;49410;55.708;37.522;2023-02-13T08:56:24;99028.22;;;-1.55;nan
63287;BME280;49410;55.708;37.522;2023-02-13T08:58:50;99027.91;;;-1.50;nan
63287;BME280;49410;55.708;37.522;2023-02-13T09:01:15;99034.00;;;-1.35;nan
63287;BME280;49410;55.708;37.522;2023-02-13T09:03:41;99016.72;;;-1.44;nan
63287;BME280;49410;55.708;37.522;2023-02-13T09:06:06;99020.66;;;-1.24;nan
63287;BME280;49410;55.708;37.522;2023-02-13T09:08:34;99028.00;;;-1.39;nan
63287;BME280;49410;55.708;37.522;2023-02-13T09:11:01;99022.00;;;-1.43;nan
63287;BME280;49410;55.708;37.522;2023-02-13T09:13:29;99018.22;;;-1.40;nan
63287;BME280;49410;55.708;37.522;2023-02-13T09:16:00;99007.94;;;-1.46;nan
63287;BME280;49410;55.708;37.522;2023-02-13T09:18:27;99021.03;;;-1.54;nan
63287;BME280;49410;55.708;37.522;2023-02-13T09:21:00;99007.63;;;-1.54;nan
63287;BME280;49410;55.708;37.522;2023-02-13T09:23:29;99009.13;;;-1.50;nan
63287;BME280;49410;55.708;37.522;2023-02-13T09:25:57;99009.84;;;-1.35;nan
63287;BME280;49410;55.708;37.522;2023-02-13T09:28:23;98994.94;;;-1.39;nan
63287;BME280;49410;55.708;37.522;2023-02-13T09:30:51;98996.78;;;-1.40;nan
63287;BME280;49410;55.708;37.522;2023-02-13T09:33:16;99001.34;;;-1.29;nan
63287;BME280;49410;55.708;37.522;2023-02-13T09:35:42;98976.78;;;-1.23;nan
63287;BME280;49410;55.708;37.522;2023-02-13T09:38:08;98967.06;;;-1.13;nan
63287;BME280;49410;55.708;37.522;2023-02-13T09:40:40;98960.44;;;-0.96;nan
63287;BME280;49410;55.708;37.522;2023-02-13T09:43:14;98971.84;;;-0.81;nan
63287;BME280;49410;55.708;37.522;2023-02-13T09:45:43;98955.63;;;-0.79;nan
63287;BME280;49410;55.708;37.522;2023-02-13T09:48:17;98952.88;;;-0.66;nan
63287;BME280;49410;55.708;37.522;2023-02-13T09:50:47;98943.50;;;-0.60;nan
63287;BME280;49410;55.708;37.522;2023-02-13T09:53:19;98941.34;;;-0.44;nan
63287;BME280;49410;55.708;37.522;2023-02-13T09:55:52;98939.91;;;-0.37;nan
63287;BME280;49410;55.708;37.522;2023-02-13T10:00:58;98937.09;;;-0.35;nan
63287;BME280;49410;55.708;37.522;2023-02-13T10:03:35;98940.06;;;-0.16;nan
63287;BME280;49410;55.708;37.522;2023-02-13T10:06:14;98942.63;;;-0.14;nan
63287;BME280;49410;55.708;37.522;2023-02-13T10:11:35;98934.19;;;-0.09;nan
63287;BME280;49410;55.708;37.522;2023-02-13T10:17:03;98921.25;;;-0.16;nan
63287;BME280;49410;55.708;37.522;2023-02-13T10:20:20;98936.88;;;-0.09;nan
63287;BME280;49410;55.708;37.522;2023-02-13T10:22:29;98929.31;;;-0.16;nan
63287;BME280;49410;55.708;37.522;2023-02-13T10:27:44;98933.78;;;-0.39;nan
63287;BME280;49410;55.708;37.522;2023-02-13T10:33:10;98931.38;;;-0.19;nan
63287;BME280;49410;55.708;37.522;2023-02-13T10:35:57;98930.16;;;-0.15;nan
63287;BME280;49410;55.708;37.522;2023-02-13T10:38:23;98920.28;;;-0.14;nan
63287;BME280;49410;55.708;37.522;2023-02-13T10:49:00;98908.91;;;0.27;nan
63287;BME280;49410;55.708;37.522;2023-02-13T10:59:37;98894.00;;;0.12;nan
63287;BME280;49410;55.708;37.522;2023-02-13T11:02:20;98878.00;;;-0.01;nan
63287;BME280;49410;55.708;37.522;2023-02-13T11:04:45;98865.28;;;0.12;nan
63287;BME280;49410;55.708;37.522;2023-02-13T11:07:17;98856.97;;;0.04;nan
63287;BME280;49410;55.708;37.522;2023-02-13T11:09:46;98866.00;;;0.14;nan
63287;BME280;49410;55.708;37.522;2023-02-13T11:12:26;98858.81;;;0.04;nan
63287;BME280;49410;55.708;37.522;2023-02-13T11:15:06;98826.66;;;0.13;nan
63287;BME280;49410;55.708;37.522;2023-02-13T11:17:34;98831.78;;;0.17;nan
63287;BME280;49410;55.708;37.522;2023-02-13T11:20:07;98850.19;;;0.44;nan
63287;BME280;49410;55.708;37.522;2023-02-13T11:22:36;98844.94;;;0.31;nan
63287;BME280;49410;55.708;37.522;2023-02-13T11:25:16;98824.81;;;0.25;nan
63287;BME280;49410;55.708;37.522;2023-02-13T11:27:43;98829.13;;;0.49;nan
63287;BME280;49410;55.708;37.522;2023-02-13T11:33:31;98844.50;;;0.58;nan
63287;BME280;49410;55.708;37.522;2023-02-13T11:36:09;98825.88;;;0.34;nan
63287;BME280;49410;55.708;37.522;2023-02-13T11:38:36;98833.69;;;0.37;nan
63287;BME280;49410;55.708;37.522;2023-02-13T11:41:11;98822.34;;;0.34;nan
63287;BME280;49410;55.708;37.522;2023-02-13T11:43:47;98809.50;;;0.37;nan
63287;BME280;49410;55.708;37.522;2023-02-13T11:46:18;98814.81;;;0.60;nan
63287;BME280;49410;55.708;37.522;2023-02-13T11:51:34;98796.78;;;0.72;nan
63287;BME280;49410;55.708;37.522;2023-02-13T11:54:00;98804.22;;;0.80;nan
63287;BME280;49410;55.708;37.522;2023-02-13T11:56:26;98790.75;;;0.80;nan
63287;BME280;49410;55.708;37.522;2023-02-13T11:59:00;98804.41;;;0.88;nan
63287;BME280;49410;55.708;37.522;2023-02-13T12:01:27;98785.63;;;0.98;nan
63287;BME280;49410;55.708;37.522;2023-02-13T12:04:13;98791.47;;;1.03;nan
63287;BME280;49410;55.708;37.522;2023-02-13T12:07:01;98788.00;;;1.12;nan
63287;BME280;49410;55.708;37.522;2023-02-13T12:10:00;98767.50;;;1.00;nan
63287;BME280;49410;55.708;37.522;2023-02-13T12:12:39;98744.97;;;1.01;nan
63287;BME280;49410;55.708;37.522;2023-02-13T12:15:17;98778.31;;;1.31;nan
63287;BME280;49410;55.708;37.522;2023-02-13T12:17:44;98762.63;;;1.15;nan
63287;BME280;49410;55.708;37.522;2023-02-13T12:20:13;98760.22;;;1.12;nan
63287;BME280;49410;55.708;37.522;2023-02-13T12:23:16;98770.78;;;1.24;nan
63287;BME280;49410;55.708;37.522;2023-02-13T12:28:31;98761.78;;;1.14;nan
63287;BME280;49410;55.708;37.522;2023-02-13T12:36:35;98764.41;;;1.04;nan
63287;BME280;49410;55.708;37.522;2023-02-13T12:50:29;98764.06;;;0.98;nan
63287;BME280;49410;55.708;37.522;2023-02-13T12:53:03;98754.09;;;0.88;nan
63287;BME280;49410;55.708;37.522;2023-02-13T13:15:34;98718.56;;;1.16;nan
63287;BME280;49410;55.708;37.522;2023-02-13T13:24:08;98724.34;;;1.11;nan
63287;BME280;49410;55.708;37.522;2023-02-13T13:26:34;98725.66;;;1.17;nan
63287;BME280;49410;55.708;37.522;2023-02-13T13:29:05;98714.56;;;1.10;nan
63287;BME280;49410;55.708;37.522;2023-02-13T13:31:35;98691.38;;;0.98;nan
63287;BME280;49410;55.708;37.522;2023-02-13T13:34:07;98718.78;;;1.03;nan
63287;BME280;49410;55.708;37.522;2023-02-13T13:36:42;98727.28;;;1.08;nan
63287;BME280;49410;55.708;37.522;2023-02-13T13:42:16;98698.34;;;1.00;nan
63287;BME280;49410;55.708;37.522;2023-02-13T13:47:31;98701.09;;;1.10;nan
63287;BME280;49410;55.708;37.522;2023-02-13T13:50:01;98704.50;;;1.12;nan
63287;BME280;49410;55.708;37.522;2023-02-13T13:52:34;98699.13;;;1.12;nan
63287;BME280;49410;55.708;37.522;2023-02-13T13:55:03;98694.31;;;1.16;nan
63287;BME280;49410;55.708;37.522;2023-02-13T14:05:29;98697.81;;;1.06;nan
63287;BME280;49410;55.708;37.522;2023-02-13T14:07:57;98686.72;;;1.00;nan
63287;BME280;49410;55.708;37.522;2023-02-13T14:20:39;98666.63;;;0.83;nan
63287;BME280;49410;55.708;37.522;2023-02-13T14:23:42;98658.72;;;0.81;nan
63287;BME280;49410;55.708;37.522;2023-02-13T14:28:39;98646.59;;;0.66;nan
63287;BME280;49410;55.708;37.522;2023-02-13T14:31:13;98616.72;;;0.48;nan
63287;BME280;49410;55.708;37.522;2023-02-13T14:33:56;98649.78;;;0.59;nan
63287;BME280;49410;55.708;37.522;2023-02-13T14:36:34;98645.19;;;0.71;nan
63287;BME280;49410;55.708;37.522;2023-02-13T14:44:35;98655.09;;;0.71;nan
63287;BME280;49410;55.708;37.522;2023-02-13T14:47:13;98633.91;;;0.56;nan
63287;BME280;49410;55.708;37.522;2023-02-13T14:49:42;98634.91;;;0.55;nan
63287;BME280;49410;55.708;37.522;2023-02-13T14:52:20;98625.00;;;0.56;nan
63287;BME280;49410;55.708;37.522;2023-02-13T14:54:59;98634.38;;;0.61;nan
63287;BME280;49410;55.708;37.522;2023-02-13T14:57:29;98619.22;;;0.60;nan
63287;BME280;49410;55.708;37.522;2023-02-13T15:00:03;98627.59;;;0.67;nan
63287;BME280;49410;55.708;37.522;2023-02-13T15:02:38;98605.31;;;0.55;nan
63287;BME280;49410;55.708;37.522;2023-02-13T15:05:17;98597.53;;;0.62;nan
63287;BME280;49410;55.708;37.522;2023-02-13T15:07:51;98596.31;;;0.66;nan
63287;BME280;49410;55.708;37.522;2023-02-13T15:10:50;98598.91;;;0.77;nan
63287;BME280;49410;55.708;37.522;2023-02-13T15:13:19;98593.53;;;0.77;nan
63287;BME280;49410;55.708;37.522;2023-02-13T15:15:52;98587.81;;;0.71;nan
63287;BME280;49410;55.708;37.522;2023-02-13T15:18:29;98582.59;;;0.69;nan
63287;BME280;49410;55.708;37.522;2023-02-13T15:20:57;98550.22;;;0.59;nan
63287;BME280;49410;55.708;37.522;2023-02-13T15:23:30;98557.63;;;0.67;nan
63287;BME280;49410;55.708;37.522;2023-02-13T15:26:20;98562.16;;;0.67;nan
63287;BME280;49410;55.708;37.522;2023-02-13T15:29:17;98562.34;;;0.75;nan
63287;BME280;49410;55.708;37.522;2023-02-13T15:31:43;98559.94;;;0.72;nan
63287;BME280;49410;55.708;37.522;2023-02-13T15:34:38;98564.84;;;0.67;nan
63287;BME280;49410;55.708;37.522;2023-02-13T15:37:23;98559.34;;;0.68;nan
63287;BME280;49410;55.708;37.522;2023-02-13T15:39:48;98546.16;;;0.65;nan
63287;BME280;49410;55.708;37.522;2023-02-13T15:42:14;98524.44;;;0.57;nan
63287;BME280;49410;55.708;37.522;2023-02-13T15:44:40;98520.69;;;0.69;nan
63287;BME280;49410;55.708;37.522;2023-02-13T15:47:29;98522.06;;;0.64;nan
63287;BME280;49410;55.708;37.522;2023-02-13T15:49:56;98524.78;;;0.73;nan
63287;BME280;49410;55.708;37.522;2023-02-13T15:52:31;98527.63;;;0.72;nan
63287;BME280;49410;55.708;37.522;2023-02-13T15:54:59;98511.75;;;0.69;nan
63287;BME280;49410;55.708;37.522;2023-02-13T15:57:25;98521.50;;;0.60;nan
63287;BME280;49410;55.708;37.522;2023-02-13T15:59:53;98508.34;;;0.67;nan
63287;BME280;49410;55.708;37.522;2023-02-13T16:02:27;98494.44;;;0.61;nan
63287;BME280;49410;55.708;37.522;2023-02-13T16:04:54;98510.50;;;0.73;nan
63287;BME280;49410;55.708;37.522;2023-02-13T16:07:20;98510.50;;;0.73;nan
63287;BME280;49410;55.708;37.522;2023-02-13T16:09:46;98496.16;;;0.72;nan